Time;durP1;ratioP1;P1;durP2;ratioP2;P2;SDS_P1;SDS_P2;PMS_P1;PMS_P2;Temp;Humidity;BMP_temperature;BMP_pressure;BME280_temperature;BME280_humidity;BME280_pressure;Samples;Min_cycle;Max_cycle;Signal;HPM_P1;HPM_P2
2022/10/02 00:02:45;;;;;;;16.67;2.97;;;11.30;92.80;;;;;;5011428;28;20502;-65
2022/10/02 00:05:17;;;;;;;13.00;2.70;;;11.30;92.60;;;;;;5027763;28;20037;-64
2022/10/02 00:07:58;;;;;;;12.45;2.42;;;11.30;92.30;;;;;;5032057;28;20037;-65
2022/10/02 00:10:40;;;;;;;9.32;2.53;;;11.20;91.10;;;;;;5026518;28;20053;-65
2022/10/02 00:13:11;;;;;;;10.95;2.45;;;11.20;90.80;;;;;;5027729;28;20410;-64
2022/10/02 00:15:41;;;;;;;9.73;2.20;;;11.20;90.40;;;;;;5016432;28;20037;-65
2022/10/02 00:18:13;;;;;;;7.13;2.00;;;11.20;90.80;;;;;;5033108;28;20029;-65
2022/10/02 00:21:03;;;;;;;12.90;2.60;;;11.10;90.20;;;;;;5029256;28;20449;-64
2022/10/02 00:23:49;;;;;;;10.73;2.85;;;11.10;89.20;;;;;;5030968;28;20036;-64
2022/10/02 00:26:30;;;;;;;10.85;2.58;;;11.10;89.30;;;;;;5030940;28;20449;-64
2022/10/02 00:29:04;;;;;;;8.52;2.40;;;11.20;89.60;;;;;;5034558;28;20029;-64
2022/10/02 00:31:43;;;;;;;9.23;2.05;;;11.30;90.20;;;;;;5012581;28;20041;-64
2022/10/02 00:34:29;;;;;;;10.65;1.95;;;11.30;91.40;;;;;;5010065;28;20791;-64
2022/10/02 00:37:12;;;;;;;8.90;1.80;;;11.40;93.00;;;;;;5010341;28;20454;-65
2022/10/02 00:39:47;;;;;;;6.95;1.70;;;11.60;95.70;;;;;;5009388;28;20038;-64
2022/10/02 00:42:47;;;;;;;11.82;1.95;;;11.80;98.00;;;;;;5009197;28;20033;-64
2022/10/02 00:45:51;;;;;;;13.23;2.40;;;11.90;98.00;;;;;;5008376;28;20691;-65
2022/10/02 00:48:28;;;;;;;10.13;2.50;;;12.00;98.00;;;;;;5009886;28;20322;-64
2022/10/02 00:51:23;;;;;;;10.98;2.50;;;12.20;98.00;;;;;;5008394;28;20029;-64
2022/10/02 00:54:13;;;;;;;12.15;2.50;;;12.20;98.00;;;;;;5007516;28;20038;-64
2022/10/02 00:56:51;;;;;;;11.27;2.88;;;12.30;98.00;;;;;;5026802;28;21745;-64
2022/10/02 00:59:40;;;;;;;13.20;2.17;;;12.30;98.00;;;;;;5030533;28;20086;-65
2022/10/02 01:02:06;;;;;;;8.02;2.15;;;12.20;98.00;;;;;;5028084;28;20387;-65
2022/10/02 01:04:37;;;;;;;11.35;1.80;;;12.20;98.00;;;;;;5031488;28;20059;-64
2022/10/02 01:07:09;;;;;;;11.20;2.42;;;12.20;98.00;;;;;;5026487;28;20030;-65
2022/10/02 01:09:38;;;;;;;11.43;2.72;;;12.20;98.00;;;;;;5032475;28;20029;-64
2022/10/02 01:12:04;;;;;;;9.98;2.30;;;12.20;98.00;;;;;;5031331;28;20350;-64
2022/10/02 01:14:39;;;;;;;11.43;2.38;;;12.20;98.00;;;;;;5034090;28;20029;-64
2022/10/02 01:17:19;;;;;;;17.05;2.40;;;12.20;98.00;;;;;;5025006;28;21766;-64
2022/10/02 01:19:45;;;;;;;8.63;1.83;;;12.20;98.00;;;;;;5028811;28;20044;-64
2022/10/02 01:22:27;;;;;;;12.70;2.20;;;12.20;98.00;;;;;;5030944;28;20037;-65
2022/10/02 01:24:58;;;;;;;10.45;2.25;;;12.20;98.00;;;;;;5033114;28;20423;-64
2022/10/02 01:27:25;;;;;;;7.32;2.05;;;12.20;98.00;;;;;;5024887;28;20064;-65
2022/10/02 01:30:14;;;;;;;9.77;2.08;;;12.20;98.00;;;;;;5020425;28;20296;-65
2022/10/02 01:32:58;;;;;;;16.08;2.55;;;12.10;98.00;;;;;;5021331;28;20067;-64
2022/10/02 01:35:30;;;;;;;11.63;1.83;;;12.10;98.00;;;;;;5026956;28;20110;-65
2022/10/02 01:37:57;;;;;;;8.30;1.90;;;12.10;98.00;;;;;;5028555;28;20076;-64
2022/10/02 01:40:27;;;;;;;10.20;2.33;;;12.10;98.00;;;;;;5031522;28;20576;-65
2022/10/02 01:42:56;;;;;;;6.45;1.90;;;12.10;98.00;;;;;;5031165;28;20381;-64
2022/10/02 01:45:52;;;;;;;7.50;2.10;;;12.30;98.00;;;;;;5028885;28;20061;-64
2022/10/02 01:48:26;;;;;;;12.63;2.00;;;12.40;98.00;;;;;;5025353;28;20113;-64
2022/10/02 01:51:01;;;;;;;11.25;2.47;;;12.40;98.00;;;;;;5032804;28;20112;-65
2022/10/02 01:53:35;;;;;;;13.48;2.35;;;12.50;98.00;;;;;;5032384;28;20099;-64
2022/10/02 01:56:30;;;;;;;15.35;2.00;;;12.60;98.00;;;;;;5031559;28;20033;-64
2022/10/02 01:59:22;;;;;;;14.93;2.50;;;12.70;98.00;;;;;;5003456;28;20119;-64
2022/10/02 02:02:16;;;;;;;12.10;2.33;;;12.70;98.00;;;;;;5026089;28;20061;-64
2022/10/02 02:04:42;;;;;;;12.30;1.83;;;12.80;98.00;;;;;;5033035;28;20030;-64
2022/10/02 02:07:24;;;;;;;11.60;2.45;;;12.80;98.00;;;;;;5027995;28;20026;-64
2022/10/02 02:10:08;;;;;;;9.30;2.20;;;12.80;98.00;;;;;;5013290;28;20030;-63
2022/10/02 02:12:53;;;;;;;14.00;2.40;;;12.80;98.00;;;;;;5028179;28;20048;-64
2022/10/02 02:15:22;;;;;;;15.63;2.25;;;12.80;98.00;;;;;;5031811;28;20560;-64
2022/10/02 02:17:55;;;;;;;12.68;2.47;;;12.80;98.00;;;;;;5027156;28;20476;-65
2022/10/02 02:20:33;;;;;;;13.23;2.22;;;12.90;98.00;;;;;;5029552;28;20059;-66
2022/10/02 02:23:10;;;;;;;9.10;2.33;;;13.00;98.00;;;;;;5031945;28;20126;-65
2022/10/02 02:25:44;;;;;;;10.77;1.85;;;13.00;98.00;;;;;;5029939;28;20056;-65
2022/10/02 02:28:13;;;;;;;10.95;1.90;;;13.00;98.00;;;;;;5031859;28;20033;-64
2022/10/02 02:30:43;;;;;;;10.23;2.00;;;13.00;98.00;;;;;;5031754;28;20341;-65
2022/10/02 02:33:59;;;;;;;8.25;2.30;;;13.00;98.00;;;;;;5030682;28;20140;-65
2022/10/02 02:36:35;;;;;;;9.13;1.60;;;13.00;98.00;;;;;;5022716;28;20179;-65
2022/10/02 02:39:06;;;;;;;11.25;1.77;;;12.90;98.00;;;;;;5029403;28;20037;-64
2022/10/02 02:41:40;;;;;;;11.65;2.05;;;12.90;98.00;;;;;;5032108;28;20070;-64
2022/10/02 02:44:10;;;;;;;12.85;2.15;;;12.90;98.00;;;;;;5034538;28;20021;-65
2022/10/02 02:49:28;;;;;;;12.13;2.42;;;13.00;98.00;;;;;;5016535;28;20037;-64
2022/10/02 02:52:00;;;;;;;9.82;1.73;;;13.10;98.00;;;;;;5028525;28;20026;-64
2022/10/02 02:54:33;;;;;;;11.15;2.50;;;13.10;98.00;;;;;;5011144;28;20029;-64
2022/10/02 02:57:03;;;;;;;9.70;1.90;;;13.10;98.00;;;;;;5027706;28;20041;-65
2022/10/02 02:59:30;;;;;;;10.35;2.00;;;13.10;98.00;;;;;;5034821;28;20121;-64
2022/10/02 03:01:57;;;;;;;7.22;1.65;;;13.10;98.00;;;;;;5030320;28;20053;-64
2022/10/02 03:04:22;;;;;;;7.63;1.88;;;13.10;98.00;;;;;;5017020;28;20095;-64
2022/10/02 03:06:54;;;;;;;7.63;1.67;;;13.20;98.00;;;;;;5027248;28;20445;-64
2022/10/02 03:09:22;;;;;;;12.73;2.65;;;13.20;98.00;;;;;;5020081;28;20104;-64
2022/10/02 03:11:56;;;;;;;10.75;1.95;;;13.30;98.00;;;;;;5031498;28;20068;-64
2022/10/02 03:14:41;;;;;;;9.65;2.30;;;13.30;98.00;;;;;;5031662;28;20075;-64
2022/10/02 03:17:15;;;;;;;13.20;2.45;;;13.30;98.00;;;;;;5029882;28;20378;-64
2022/10/02 03:19:59;;;;;;;9.15;1.75;;;13.30;98.00;;;;;;5032923;28;20125;-64
2022/10/02 03:22:34;;;;;;;8.93;2.45;;;13.30;98.00;;;;;;5031244;28;20562;-64
2022/10/02 03:25:09;;;;;;;6.70;1.50;;;13.30;98.00;;;;;;5033729;28;20354;-64
2022/10/02 03:27:39;;;;;;;10.68;1.77;;;13.20;98.00;;;;;;5031084;28;20406;-64
2022/10/02 03:30:08;;;;;;;12.30;1.77;;;13.20;98.00;;;;;;5033921;28;20029;-64
2022/10/02 03:32:36;;;;;;;8.20;1.88;;;13.10;98.00;;;;;;5031044;28;20017;-64
2022/10/02 03:35:04;;;;;;;9.40;2.70;;;13.10;98.00;;;;;;5035779;28;20029;-65
2022/10/02 03:37:31;;;;;;;16.73;2.33;;;13.10;98.00;;;;;;5029940;28;20069;-64
2022/10/02 03:39:59;;;;;;;8.35;1.70;;;13.10;98.00;;;;;;5031904;28;20049;-64
2022/10/02 03:42:26;;;;;;;10.63;2.22;;;13.00;98.00;;;;;;5027640;28;20025;-64
2022/10/02 03:44:52;;;;;;;11.93;2.50;;;13.00;98.00;;;;;;5031529;28;20108;-64
2022/10/02 03:47:18;;;;;;;8.27;1.92;;;13.10;98.00;;;;;;5032033;28;20109;-64
2022/10/02 03:49:45;;;;;;;10.75;2.25;;;13.00;98.00;;;;;;5034600;28;20030;-64
2022/10/02 03:52:17;;;;;;;11.50;2.25;;;13.00;98.00;;;;;;5031524;28;20038;-64
2022/10/02 03:54:44;;;;;;;10.60;2.08;;;13.10;98.00;;;;;;5037587;28;20041;-65
2022/10/02 03:57:22;;;;;;;11.05;2.05;;;13.10;98.00;;;;;;5026153;28;20037;-64
2022/10/02 04:00:05;;;;;;;9.38;1.90;;;13.10;98.00;;;;;;5038979;28;20025;-64
2022/10/02 04:03:03;;;;;;;10.60;2.08;;;13.20;98.00;;;;;;5036818;28;20087;-65
2022/10/02 04:05:35;;;;;;;8.50;1.90;;;13.30;98.00;;;;;;5036204;28;20060;-64
2022/10/02 04:08:17;;;;;;;10.82;1.73;;;13.20;98.00;;;;;;5030613;28;20028;-64
2022/10/02 04:10:54;;;;;;;9.20;2.17;;;13.20;98.00;;;;;;5033011;28;20116;-64
2022/10/02 04:13:26;;;;;;;11.13;2.30;;;13.20;98.00;;;;;;5036948;28;20040;-65
2022/10/02 04:15:58;;;;;;;14.07;2.08;;;13.20;98.00;;;;;;5034087;28;20343;-64
2022/10/02 04:18:45;;;;;;;10.50;2.25;;;13.30;98.00;;;;;;5030095;28;20025;-64
2022/10/02 04:21:21;;;;;;;12.70;4.20;;;13.20;98.00;;;;;;5032313;28;20077;-64
2022/10/02 04:24:00;;;;;;;12.48;2.10;;;13.20;98.00;;;;;;5031006;28;20021;-64
2022/10/02 04:26:33;;;;;;;11.38;2.78;;;13.20;98.00;;;;;;5028408;28;20159;-64
2022/10/02 04:29:11;;;;;;;10.70;2.05;;;13.30;97.90;;;;;;5024297;28;20025;-64
2022/10/02 04:31:37;;;;;;;11.52;1.92;;;13.30;98.00;;;;;;5034345;28;20037;-64
2022/10/02 04:34:06;;;;;;;10.27;2.00;;;13.30;97.80;;;;;;5037610;28;20021;-64
2022/10/02 04:36:53;;;;;;;9.80;2.05;;;13.30;97.60;;;;;;5033057;28;20085;-65
2022/10/02 04:39:45;;;;;;;13.13;2.17;;;13.30;97.60;;;;;;5036525;28;20449;-64
2022/10/02 04:42:17;;;;;;;11.00;2.08;;;13.30;97.50;;;;;;5034665;28;20038;-64
2022/10/02 04:44:56;;;;;;;7.70;2.05;;;13.40;97.20;;;;;;5037219;28;20022;-65
2022/10/02 04:47:25;;;;;;;11.43;2.35;;;13.40;97.00;;;;;;5028120;28;20030;-64
2022/10/02 04:50:17;;;;;;;10.13;2.13;;;13.40;97.30;;;;;;5035586;28;20029;-64
2022/10/02 04:52:49;;;;;;;12.00;2.47;;;13.40;96.80;;;;;;5034616;28;20021;-64
2022/10/02 04:55:38;;;;;;;11.98;2.33;;;13.50;96.40;;;;;;5037496;28;20048;-64
2022/10/02 04:58:15;;;;;;;8.05;2.05;;;13.50;96.30;;;;;;5027914;28;20430;-65
2022/10/02 05:00:46;;;;;;;10.02;2.00;;;13.60;96.00;;;;;;5035077;28;20034;-64
2022/10/02 05:03:31;;;;;;;11.68;2.20;;;13.60;96.00;;;;;;5035100;28;20453;-64
2022/10/02 05:06:15;;;;;;;16.45;2.53;;;13.60;95.90;;;;;;5034886;28;20486;-64
2022/10/02 05:08:56;;;;;;;8.53;2.30;;;13.50;96.10;;;;;;5021561;28;20141;-63
2022/10/02 05:11:33;;;;;;;10.07;2.13;;;13.60;95.90;;;;;;5031646;28;20037;-66
2022/10/02 05:14:18;;;;;;;7.95;1.60;;;13.60;96.20;;;;;;5037450;28;20037;-65
2022/10/02 05:17:03;;;;;;;10.30;2.28;;;13.60;95.90;;;;;;5025214;28;20104;-65
2022/10/02 05:20:04;;;;;;;6.80;1.90;;;13.60;96.10;;;;;;5032394;28;20401;-65
2022/10/02 05:22:50;;;;;;;11.95;1.95;;;13.60;95.90;;;;;;5031893;28;20360;-64
2022/10/02 05:25:51;;;;;;;11.32;1.92;;;13.60;95.70;;;;;;5028579;28;20018;-65
2022/10/02 05:28:48;;;;;;;13.45;2.30;;;13.60;95.60;;;;;;5030389;28;20025;-65
2022/10/02 05:31:22;;;;;;;10.55;2.42;;;13.80;95.40;;;;;;5038266;28;20062;-64
2022/10/02 05:34:03;;;;;;;10.45;1.92;;;13.80;95.20;;;;;;5037944;28;20058;-64
2022/10/02 05:36:47;;;;;;;8.20;1.75;;;13.80;95.00;;;;;;5035694;28;20053;-65
2022/10/02 05:39:20;;;;;;;10.02;2.42;;;13.80;95.10;;;;;;5035235;28;20474;-64
2022/10/02 05:42:00;;;;;;;10.77;2.08;;;13.80;95.20;;;;;;5033851;28;20038;-63
2022/10/02 05:44:38;;;;;;;12.18;1.60;;;13.80;94.90;;;;;;5037500;28;20484;-64
2022/10/02 05:47:14;;;;;;;9.75;2.55;;;13.90;94.90;;;;;;5037124;28;20095;-63
2022/10/02 05:50:15;;;;;;;9.80;1.75;;;13.90;95.10;;;;;;5037532;28;20028;-64
2022/10/02 05:52:40;;;;;;;8.55;1.85;;;13.90;94.70;;;;;;5020706;28;20037;-64
2022/10/02 05:55:33;;;;;;;12.38;1.85;;;13.90;94.90;;;;;;5034692;28;20133;-64
2022/10/02 05:58:18;;;;;;;10.20;1.70;;;14.00;94.70;;;;;;5039808;28;20033;-64
2022/10/02 06:01:36;;;;;;;10.55;2.28;;;14.10;94.30;;;;;;5036213;28;20021;-65
2022/10/02 06:04:26;;;;;;;9.32;1.70;;;14.10;94.40;;;;;;5033269;28;20037;-64
2022/10/02 06:06:56;;;;;;;6.35;1.70;;;14.10;94.50;;;;;;5037228;28;20032;-64
2022/10/02 06:09:41;;;;;;;10.05;1.77;;;14.20;94.00;;;;;;5035491;28;20326;-65
2022/10/02 06:12:19;;;;;;;6.78;1.73;;;14.20;93.80;;;;;;5037069;28;20310;-65
2022/10/02 06:14:44;;;;;;;7.60;1.60;;;14.30;93.60;;;;;;5050011;28;20112;-65
2022/10/02 06:17:35;;;;;;;6.20;1.50;;;14.30;93.60;;;;;;5043725;28;20363;-65
2022/10/02 06:20:13;;;;;;;8.63;1.75;;;14.30;93.90;;;;;;5034994;28;20030;-65
2022/10/02 06:22:50;;;;;;;7.20;1.65;;;14.30;94.20;;;;;;5034950;28;20116;-65
2022/10/02 06:25:28;;;;;;;6.72;1.70;;;14.30;94.10;;;;;;5023054;28;20038;-65
2022/10/02 06:28:12;;;;;;;11.00;2.30;;;14.40;93.80;;;;;;5035543;28;20041;-65
2022/10/02 06:30:42;;;;;;;10.77;2.50;;;14.40;93.50;;;;;;5034238;28;20025;-65
2022/10/02 06:33:24;;;;;;;8.18;2.70;;;14.40;93.80;;;;;;5035500;28;20025;-65
2022/10/02 06:36:09;;;;;;;11.73;2.35;;;14.50;93.60;;;;;;5034761;28;20025;-65
2022/10/02 06:38:55;;;;;;;6.63;1.85;;;14.50;93.80;;;;;;5035206;28;20044;-65
2022/10/02 06:41:59;;;;;;;8.18;1.40;;;14.50;93.60;;;;;;5034173;28;20033;-65
2022/10/02 06:44:46;;;;;;;7.68;1.55;;;14.60;92.90;;;;;;5030106;28;20029;-64
2022/10/02 06:47:15;;;;;;;9.05;1.88;;;14.60;92.80;;;;;;5035770;28;20440;-65
2022/10/02 06:49:50;;;;;;;7.95;1.80;;;14.70;92.70;;;;;;5036143;28;20024;-65
2022/10/02 06:52:22;;;;;;;7.10;1.67;;;14.80;92.80;;;;;;5034874;28;20108;-64
2022/10/02 06:55:12;;;;;;;6.30;1.60;;;14.90;92.40;;;;;;5040731;28;20417;-65
2022/10/02 06:58:02;;;;;;;5.88;1.40;;;14.90;92.30;;;;;;5031961;28;20346;-65
2022/10/02 07:00:31;;;;;;;6.00;1.40;;;15.00;92.30;;;;;;5031493;28;20108;-65
2022/10/02 07:03:18;;;;;;;7.55;1.52;;;15.00;92.20;;;;;;5033350;28;20021;-65
2022/10/02 07:05:47;;;;;;;8.20;1.52;;;15.00;92.80;;;;;;5036583;28;20334;-64
2022/10/02 07:08:21;;;;;;;8.95;1.88;;;15.10;92.80;;;;;;5052081;28;20067;-65
2022/10/02 07:11:04;;;;;;;10.80;1.90;;;15.10;92.50;;;;;;5034620;28;20029;-65
2022/10/02 07:13:52;;;;;;;8.55;1.95;;;15.10;93.40;;;;;;5035061;28;20030;-65
2022/10/02 07:17:04;;;;;;;6.03;1.27;;;15.20;93.10;;;;;;5035376;28;20484;-65
2022/10/02 07:19:38;;;;;;;6.25;1.83;;;15.20;93.30;;;;;;5031583;28;20041;-65
2022/10/02 07:22:37;;;;;;;6.97;1.33;;;15.30;93.80;;;;;;5032961;28;20026;-65
2022/10/02 07:25:14;;;;;;;6.82;1.30;;;15.40;93.60;;;;;;4996969;28;20332;-65
2022/10/02 07:27:45;;;;;;;6.07;1.60;;;15.50;93.40;;;;;;5035315;28;20017;-65
2022/10/02 07:30:14;;;;;;;8.57;1.98;;;15.40;93.60;;;;;;5032878;28;20024;-65
2022/10/02 07:33:09;;;;;;;7.53;1.42;;;15.50;93.90;;;;;;5033918;28;20104;-65
2022/10/02 07:36:23;;;;;;;5.05;1.52;;;15.50;94.30;;;;;;5015843;28;20030;-65
2022/10/02 07:39:16;;;;;;;9.27;1.50;;;15.60;94.30;;;;;;5011023;28;20359;-65
2022/10/02 07:42:00;;;;;;;8.80;1.50;;;15.60;94.70;;;;;;5009614;28;20535;-65
2022/10/02 07:44:52;;;;;;;;;;;15.60;94.90;;;;;;5025293;28;20052;-65
2022/10/02 07:47:26;;;;;;;5.15;1.50;;;15.60;95.00;;;;;;5025160;28;19905;-65
2022/10/02 07:50:10;;;;;;;8.45;1.90;;;15.60;95.20;;;;;;5015758;28;20543;-65
2022/10/02 07:52:51;;;;;;;6.18;1.70;;;15.70;95.50;;;;;;5035651;28;20060;-65
2022/10/02 07:55:19;;;;;;;5.65;1.27;;;15.80;95.50;;;;;;5042498;28;20037;-64
2022/10/02 07:57:53;;;;;;;6.03;1.55;;;15.90;95.40;;;;;;5042593;28;20017;-64
2022/10/02 08:00:22;;;;;;;4.80;1.20;;;16.00;94.60;;;;;;5041030;28;20037;-64
2022/10/02 08:03:03;;;;;;;5.57;1.30;;;16.00;94.80;;;;;;5037531;28;20029;-64
2022/10/02 08:05:34;;;;;;;7.78;1.40;;;15.90;95.60;;;;;;5033459;28;20140;-64
2022/10/02 08:08:05;;;;;;;4.43;1.23;;;16.30;95.00;;;;;;5033889;28;20323;-66
2022/10/02 08:10:38;;;;;;;6.85;1.20;;;16.40;94.50;;;;;;5029654;28;20043;-66
2022/10/02 08:13:07;;;;;;;3.78;1.10;;;16.40;94.50;;;;;;5034330;28;20113;-65
2022/10/02 08:15:37;;;;;;;3.70;1.00;;;16.40;94.40;;;;;;5033205;28;20056;-65
2022/10/02 08:18:46;;;;;;;2.83;0.98;;;16.50;94.50;;;;;;5035167;28;20033;-65
2022/10/02 08:21:19;;;;;;;3.42;1.02;;;17.00;93.80;;;;;;5031352;28;20036;-65
2022/10/02 08:24:08;;;;;;;5.82;1.10;;;17.80;91.30;;;;;;5029688;28;20053;-65
2022/10/02 08:26:59;;;;;;;3.78;0.95;;;18.30;89.80;;;;;;5032114;28;20022;-65
2022/10/02 08:29:54;;;;;;;2.67;0.95;;;18.60;88.90;;;;;;5011675;28;20026;-65
2022/10/02 08:32:21;;;;;;;3.72;1.17;;;18.30;89.40;;;;;;5032481;28;20030;-65
2022/10/02 08:34:48;;;;;;;2.85;0.85;;;18.80;89.10;;;;;;5028813;28;20029;-65
2022/10/02 08:37:19;;;;;;;3.75;1.00;;;18.80;88.00;;;;;;5032070;28;20049;-64
2022/10/02 08:40:18;;;;;;;5.05;1.45;;;18.50;89.00;;;;;;5028450;28;20029;-64
2022/10/02 08:42:49;;;;;;;4.35;1.17;;;17.90;90.80;;;;;;5035896;28;20448;-65
2022/10/02 08:45:56;;;;;;;3.88;1.48;;;17.70;91.60;;;;;;5034116;28;20111;-65
2022/10/02 08:48:53;;;;;;;4.50;1.10;;;17.20;93.10;;;;;;4994115;28;20033;-65
2022/10/02 08:51:22;;;;;;;3.05;1.00;;;17.10;93.90;;;;;;4994938;28;20336;-64
2022/10/02 08:53:59;;;;;;;2.75;1.00;;;17.30;94.20;;;;;;5026252;28;20053;-65
2022/10/02 08:56:28;;;;;;;3.00;0.90;;;17.90;92.50;;;;;;5034473;28;20108;-64
2022/10/02 08:59:05;;;;;;;2.97;1.00;;;18.20;91.50;;;;;;5036430;28;20095;-65
2022/10/02 09:02:10;;;;;;;3.92;1.20;;;18.00;91.70;;;;;;5035725;28;20036;-64
2022/10/02 09:04:41;;;;;;;2.97;1.00;;;17.70;93.10;;;;;;5018553;28;20408;-64
2022/10/02 09:07:31;;;;;;;2.75;0.90;;;18.00;92.10;;;;;;5031393;28;20026;-64
2022/10/02 09:10:20;;;;;;;3.67;1.15;;;18.00;92.60;;;;;;5034880;28;20022;-64
2022/10/02 09:13:03;;;;;;;2.10;0.95;;;18.00;92.60;;;;;;5018265;28;20030;-64
2022/10/02 09:15:41;;;;;;;3.85;1.00;;;18.00;92.70;;;;;;5026551;28;20025;-65
2022/10/02 09:18:28;;;;;;;1.75;0.80;;;17.70;93.50;;;;;;5027960;28;20022;-64
2022/10/02 09:20:56;;;;;;;9.82;1.13;;;17.60;93.80;;;;;;5034186;28;20083;-64
2022/10/02 09:23:56;;;;;;;1.58;0.70;;;17.60;93.90;;;;;;5042969;28;20029;-64
2022/10/02 09:26:49;;;;;;;3.13;1.05;;;17.80;93.80;;;;;;5033594;28;20021;-65
2022/10/02 09:29:36;;;;;;;2.70;0.90;;;17.70;93.90;;;;;;5032803;28;20033;-63
2022/10/02 09:32:33;;;;;;;2.65;1.05;;;17.40;94.40;;;;;;5029482;28;20029;-64
2022/10/02 09:35:42;;;;;;;3.38;0.90;;;17.50;94.80;;;;;;5032018;28;20030;-65
2022/10/02 09:38:40;;;;;;;5.00;1.30;;;17.40;94.70;;;;;;5028011;28;20034;-64
2022/10/02 09:41:38;;;;;;;2.85;0.90;;;17.80;93.90;;;;;;5024447;28;20041;-64
2022/10/02 09:44:57;;;;;;;2.75;0.80;;;18.20;93.00;;;;;;4975400;28;20053;-64
2022/10/02 09:47:46;;;;;;;2.05;0.70;;;19.40;89.90;;;;;;5020434;28;20095;-64
2022/10/02 09:50:22;;;;;;;2.53;0.82;;;19.70;88.50;;;;;;5029092;28;20092;-64
2022/10/02 09:53:22;;;;;;;2.03;0.82;;;19.20;89.20;;;;;;5035670;28;20045;-64
2022/10/02 09:56:19;;;;;;;2.65;0.93;;;18.80;90.90;;;;;;5033007;28;20406;-64
2022/10/02 09:59:20;;;;;;;2.50;0.90;;;19.00;90.30;;;;;;5035121;28;20080;-64
2022/10/02 10:02:10;;;;;;;3.08;0.85;;;19.30;89.50;;;;;;5036968;28;20032;-64
2022/10/02 10:05:15;;;;;;;2.50;1.00;;;19.20;89.80;;;;;;5026752;28;20024;-64
2022/10/02 10:08:19;;;;;;;2.58;0.80;;;19.00;90.00;;;;;;5036947;28;20108;-65
2022/10/02 10:11:00;;;;;;;1.55;0.80;;;19.20;89.50;;;;;;5033750;28;20028;-64
2022/10/02 10:13:41;;;;;;;1.00;0.47;;;19.30;88.60;;;;;;5032015;28;20028;-65
2022/10/02 10:16:29;;;;;;;2.60;0.60;;;19.90;86.40;;;;;;5034878;28;20034;-64
2022/10/02 10:19:22;;;;;;;3.58;0.80;;;20.70;83.10;;;;;;5029394;28;20036;-64
2022/10/02 10:22:06;;;;;;;1.52;0.60;;;20.40;84.40;;;;;;5035624;28;20042;-65
2022/10/02 10:24:59;;;;;;;3.92;0.70;;;20.20;84.90;;;;;;5033899;28;20032;-65
2022/10/02 10:27:48;;;;;;;2.53;0.60;;;20.60;83.10;;;;;;5034937;28;20026;-65
2022/10/02 10:30:51;;;;;;;1.65;0.70;;;20.00;83.30;;;;;;5019697;28;20041;-64
2022/10/02 10:33:36;;;;;;;0.57;0.50;;;19.30;85.70;;;;;;5044708;28;20028;-64
2022/10/02 10:39:25;;;;;;;0.77;0.52;;;19.60;84.40;;;;;;5034507;28;20087;-64
2022/10/02 10:42:16;;;;;;;5.88;0.65;;;19.40;85.70;;;;;;5037579;28;20026;-64
2022/10/02 10:44:58;;;;;;;2.15;0.93;;;19.40;86.00;;;;;;5036302;28;20368;-64
2022/10/02 10:47:38;;;;;;;1.45;0.60;;;19.80;85.90;;;;;;5033938;28;20040;-64
2022/10/02 10:50:10;;;;;;;1.25;0.60;;;19.90;85.90;;;;;;5024767;28;20116;-63
2022/10/02 10:52:38;;;;;;;1.95;0.60;;;19.80;85.40;;;;;;5034549;28;20033;-64
2022/10/02 10:55:14;;;;;;;1.52;0.60;;;19.60;86.20;;;;;;5034285;28;20029;-63
2022/10/02 10:57:50;;;;;;;1.85;0.80;;;19.40;86.40;;;;;;5033288;28;20032;-64
2022/10/02 11:01:01;;;;;;;2.70;1.05;;;19.60;86.00;;;;;;5032490;28;20083;-65
2022/10/02 11:04:00;;;;;;;3.45;1.10;;;19.70;86.50;;;;;;5013549;28;20112;-66
2022/10/02 11:06:31;;;;;;;3.03;1.10;;;19.40;85.90;;;;;;5032556;28;20029;-65
2022/10/02 11:09:32;;;;;;;3.85;1.10;;;19.00;86.70;;;;;;5032910;28;20049;-64
2022/10/02 11:12:16;;;;;;;1.25;0.68;;;18.70;87.90;;;;;;4990872;28;20513;-65
2022/10/02 11:14:47;;;;;;;1.95;0.80;;;18.50;87.90;;;;;;5047610;28;20033;-66
2022/10/02 11:17:42;;;;;;;5.20;2.17;;;18.50;87.90;;;;;;5036539;28;20040;-65
2022/10/02 11:20:41;;;;;;;4.60;2.10;;;18.50;88.60;;;;;;5033813;28;20318;-64
2022/10/02 11:23:43;;;;;;;2.10;0.70;;;18.30;88.70;;;;;;5020971;28;20025;-65
2022/10/02 11:26:17;;;;;;;1.95;0.68;;;18.50;89.00;;;;;;5032459;28;20033;-65
2022/10/02 11:28:59;;;;;;;1.70;0.80;;;18.50;89.10;;;;;;5034002;28;20318;-64
2022/10/02 11:31:55;;;;;;;1.15;0.52;;;18.50;89.40;;;;;;5032914;28;20037;-64
2022/10/02 11:34:36;;;;;;;2.65;0.80;;;18.40;89.30;;;;;;5032725;28;20430;-65
2022/10/02 11:37:06;;;;;;;1.70;0.90;;;18.30;90.50;;;;;;5033961;28;20041;-64
2022/10/02 11:39:40;;;;;;;1.65;0.80;;;18.20;90.20;;;;;;5032141;28;20033;-65
2022/10/02 11:42:14;;;;;;;2.88;1.30;;;18.10;90.80;;;;;;5031282;28;20040;-65
2022/10/02 11:45:02;;;;;;;1.80;0.75;;;17.90;91.30;;;;;;5029301;28;20021;-64
2022/10/02 11:47:31;;;;;;;3.10;1.10;;;17.80;91.80;;;;;;5035453;28;20286;-65
2022/10/02 11:50:22;;;;;;;3.33;1.60;;;17.70;92.80;;;;;;5034579;28;20037;-64
2022/10/02 11:53:21;;;;;;;2.55;1.20;;;17.50;93.80;;;;;;5030362;28;20065;-64
2022/10/02 11:55:53;;;;;;;1.10;0.80;;;17.10;95.30;;;;;;5030530;28;20022;-65
2022/10/02 11:58:24;;;;;;;2.13;0.80;;;16.90;95.50;;;;;;5030389;28;20033;-64
2022/10/02 12:01:09;;;;;;;2.03;0.80;;;17.00;95.30;;;;;;5033718;28;20358;-64
2022/10/02 12:03:57;;;;;;;1.95;0.88;;;17.10;94.80;;;;;;5034579;28;20021;-65
2022/10/02 12:06:55;;;;;;;1.60;0.80;;;17.20;94.90;;;;;;5032394;28;20051;-65
2022/10/02 12:09:24;;;;;;;2.42;1.20;;;17.20;94.90;;;;;;5028069;28;20018;-65
2022/10/02 12:12:43;;;;;;;1.50;0.60;;;17.30;95.20;;;;;;5024266;28;20044;-65
2022/10/02 12:15:43;;;;;;;1.67;0.80;;;17.40;95.40;;;;;;4992096;28;20332;-65
2022/10/02 12:18:39;;;;;;;3.30;0.70;;;17.00;96.90;;;;;;5030463;28;20048;-65
2022/10/02 12:27:14;;;;;;;1.10;0.60;;;15.50;92.80;;;;;;5032456;28;20040;-67
2022/10/02 12:29:43;;;;;;;4.63;1.40;;;15.40;92.30;;;;;;5030599;28;20026;-67
2022/10/02 12:32:37;;;;;;;2.47;1.00;;;15.20;90.10;;;;;;5036429;28;20036;-67
2022/10/02 12:35:06;;;;;;;9.20;1.40;;;15.10;89.80;;;;;;5035474;28;20032;-68
2022/10/02 12:37:43;;;;;;;3.97;1.63;;;15.10;87.20;;;;;;5033773;28;20050;-67
2022/10/02 12:40:25;;;;;;;3.80;1.38;;;15.00;85.80;;;;;;5033428;28;20041;-68
2022/10/02 12:42:54;;;;;;;5.03;2.28;;;14.90;85.50;;;;;;5032092;28;20030;-68
2022/10/02 12:45:37;;;;;;;12.52;2.60;;;14.80;83.10;;;;;;5031450;28;20034;-70
2022/10/02 12:48:09;;;;;;;10.27;4.82;;;14.80;82.20;;;;;;5031181;28;20018;-70
2022/10/02 12:51:15;;;;;;;10.18;4.40;;;14.80;80.90;;;;;;5032536;28;20025;-70
2022/10/02 12:54:21;;;;;;;4.57;2.30;;;14.70;78.80;;;;;;5037571;28;20036;-70
2022/10/02 13:00:17;;;;;;;5.50;2.85;;;14.80;78.20;;;;;;5022862;28;20084;-70
2022/10/02 13:03:04;;;;;;;5.68;3.47;;;14.80;78.20;;;;;;5038158;28;20025;-69
2022/10/02 13:05:55;;;;;;;3.67;2.00;;;14.70;77.10;;;;;;5036489;28;20025;-69
2022/10/02 13:08:49;;;;;;;3.53;2.05;;;14.70;76.80;;;;;;5036681;28;20717;-69
2022/10/02 13:11:53;;;;;;;4.47;2.50;;;14.70;76.00;;;;;;5035057;28;20074;-69
2022/10/02 13:14:37;;;;;;;4.13;2.20;;;14.70;75.20;;;;;;5044121;28;20381;-70
2022/10/02 13:17:29;;;;;;;4.88;2.83;;;14.80;74.70;;;;;;5037600;28;20025;-69
2022/10/02 13:20:10;;;;;;;3.78;1.90;;;14.80;75.30;;;;;;5036691;28;20038;-69
2022/10/02 13:22:45;;;;;;;4.07;2.20;;;14.90;74.40;;;;;;5036582;28;20025;-69
2022/10/02 13:25:41;;;;;;;2.60;1.40;;;14.90;75.50;;;;;;5035132;28;20025;-69
2022/10/02 13:28:44;;;;;;;2.95;1.40;;;14.90;75.60;;;;;;5038119;28;20048;-68
2022/10/02 13:31:34;;;;;;;3.25;1.50;;;15.10;75.20;;;;;;5035578;28;20029;-69
2022/10/02 13:34:21;;;;;;;4.35;1.73;;;15.10;75.80;;;;;;5018117;28;20038;-68
2022/10/02 13:37:13;;;;;;;3.08;1.50;;;15.10;76.90;;;;;;5033262;28;20045;-69
2022/10/02 13:40:06;;;;;;;4.35;1.50;;;15.20;76.80;;;;;;5031884;28;20042;-69
2022/10/02 13:43:01;;;;;;;2.70;1.40;;;15.20;76.90;;;;;;5033130;28;20029;-68
2022/10/02 13:45:30;;;;;;;3.53;1.80;;;15.20;79.90;;;;;;5035754;28;20075;-68
2022/10/02 13:48:07;;;;;;;5.25;2.25;;;15.10;80.50;;;;;;5037648;28;20482;-68
2022/10/02 13:50:57;;;;;;;5.32;2.10;;;15.10;78.90;;;;;;5036123;28;20315;-67
2022/10/02 13:53:54;;;;;;;3.22;1.40;;;15.10;79.30;;;;;;5035580;28;20108;-67
2022/10/02 13:57:02;;;;;;;9.30;6.45;;;15.00;78.40;;;;;;5026552;28;20335;-68
2022/10/02 14:00:09;;;;;;;6.72;4.80;;;14.70;85.30;;;;;;5013697;28;20052;-68
2022/10/02 14:02:58;;;;;;;6.63;2.42;;;14.00;83.70;;;;;;5023589;28;20033;-69
2022/10/02 14:05:59;;;;;;;2.50;1.48;;;13.50;85.20;;;;;;5032001;28;20014;-68
2022/10/02 14:08:27;;;;;;;1.80;0.90;;;13.30;84.10;;;;;;5036459;28;20025;-69
2022/10/02 14:11:14;;;;;;;2.60;1.52;;;13.30;83.70;;;;;;5031415;28;20037;-68
2022/10/02 14:14:18;;;;;;;2.85;1.75;;;13.20;84.30;;;;;;5029701;28;20065;-68
2022/10/02 14:16:43;;;;;;;1.25;0.70;;;13.10;83.20;;;;;;5032590;28;20021;-68